This is the latest recevied weather packets stored in our database for station/object HG6IQI-10. If no packets are shown the sender has not sent any weather packets the latest 10 day(s).
| Time | Temp. | Humidity | Pressure | Rain* | Wind** | Luminosity | Snow |
|---|---|---|---|---|---|---|---|
| 1777483989 | 8.89° C | 37% | 1023.3 hPa | - | - | - | - |
| 1777483089 | 9.44° C | 36% | 1022.7 hPa | - | - | - | - |
| 1777482188 | 9.44° C | 35% | 1022.6 hPa | - | - | - | - |
| 1777481288 | 10° C | 34% | 1022.2 hPa | - | - | - | - |
| 1777480388 | 10.56° C | 33% | 1021.8 hPa | - | - | - | - |
| 1777478589 | 11.67° C | 31% | 1021.6 hPa | - | - | - | - |
| 1777477689 | 12.22° C | 29% | 1021.4 hPa | - | - | - | - |
| 1777476789 | 14.44° C | 27% | 1021 hPa | - | - | - | - |
| 1777475888 | 15° C | 25% | 1020.8 hPa | - | - | - | - |
| 1777474988 | 14.44° C | 26% | 1021.1 hPa | - | - | - | - |
| 1777474088 | 15° C | 25% | 1021 hPa | - | - | - | - |
| 1777473188 | 15° C | 25% | 1021.1 hPa | - | - | - | - |
| 1777472288 | 15° C | 24% | 1021.1 hPa | - | - | - | - |
| 1777471388 | 15° C | 25% | 1021.3 hPa | - | - | - | - |
| 1777470488 | 15° C | 25% | 1021.3 hPa | - | - | - | - |
| 1777469588 | 15° C | 25% | 1021.5 hPa | - | - | - | - |
| 1777468688 | 14.44° C | 25% | 1021.5 hPa | - | - | - | - |
| 1777467787 | 13.89° C | 25% | 1021.6 hPa | - | - | - | - |
| 1777466887 | 13.33° C | 24% | 1021.6 hPa | - | - | - | - |
| 1777465987 | 13.89° C | 25% | 1021.7 hPa | - | - | - | - |
| 1777465087 | 13.89° C | 26% | 1021.8 hPa | - | - | - | - |
| 1777464187 | 13.89° C | 26% | 1022 hPa | - | - | - | - |
| 1777463287 | 13.89° C | 24% | 1022.1 hPa | - | - | - | - |
| 1777462387 | 12.78° C | 26% | 1022.2 hPa | - | - | - | - |
| 1777461487 | 13.33° C | 24% | 1022.4 hPa | - | - | - | - |
* Rain since midnight (hover to see other rain measurements)
** Current wind speed in m/s (hover to see current wind gust speed)